Oscoda, MI

6:34 AM EST on December 03, 2016 (GMT -0500)
Huron Shore - 1 mi north of Ausable Point | | Change Station

Elev 600 ft 44.36 °N, 83.34 °W | Updated 19 seconds ago

Overcast
Overcast
36.3 °F
Feels Like 36 °F
N
0.0
Wind Variable Wind from WNW

Today
High -- | Low -- °F
--% Chance of Precip.
Yesterday
High -- | Low -- °F
Precip. -- in
Pressure 30.21 in
Visibility 10.0 miles
Clouds Overcast 5000 ft
Windchill 36 °F
Dew Point 36 °F
Humidity 99%
Rainfall 0.00 in
Snow Depth Not available.
7:52 AM 4:54 PM
Waxing Crescent, 14% visible
METAR KOSC 031114Z AUTO 26003KT 10SM OVC050 03/01 A3021 RMK AO2 T00300005
Pressure 30.21 in
Visibility 10.0 miles
Clouds Overcast 5000 ft
Windchill 36 °F
Dew Point 36 °F
Humidity 99%
Rainfall 0.00 in
Snow Depth Not available.
7:52 AM 4:54 PM
Waxing Crescent, 14% visible
METAR KOSC 031114Z AUTO 26003KT 10SM OVC050 03/01 A3021 RMK AO2 T00300005

10-Day Weather Forecast

Almanac

Astronomy

Dec. 03, 2016 Rise Set
Actual Time
Civil Twilight
Nautical Twilight
Astronomical Twilight
Moon
Length of Visible Light
Length of Day
Tomorrow will be .
, % of the Moon is Illuminated

Today's Extremes

State Highs State Lows

Community

WunderPhotos

Upload Photos

1,955,431 photos uploaded!

WunderBlog® & News

Nearby

Air Quality

  Air Quality AQ Index Pollutant
Not available.

Snow Depth

Station Depth Elevation

Earthquake Activity

City Distance Mag. Time & Date
Minimum magnitude displayed is 2.5.

Coastal Water Temperatures

Place Temperature

Stations

Nearby Weather Stations

Station Location Temp. Windchill Dew Point Humidity Wind Precip. Elev Updated Type
                   

Watches & Warnings

There are currently no watches in effect.